sensor_id;sensor_type;location;lat;lon;timestamp;P1;durP1;ratioP1;P2;durP2;ratioP2
16039;SDS011;8124;48.634;8.120;2023-11-21T00:01:49;38.70;;;33.55;;
16039;SDS011;8124;48.634;8.120;2023-11-21T00:06:54;41.42;;;33.88;;
16039;SDS011;8124;48.634;8.120;2023-11-21T00:11:57;39.50;;;33.75;;
16039;SDS011;8124;48.634;8.120;2023-11-21T00:17:01;40.95;;;33.47;;
16039;SDS011;8124;48.634;8.120;2023-11-21T00:22:06;40.22;;;33.42;;
16039;SDS011;8124;48.634;8.120;2023-11-21T00:27:10;38.22;;;33.30;;
16039;SDS011;8124;48.634;8.120;2023-11-21T00:32:13;45.70;;;33.38;;
16039;SDS011;8124;48.634;8.120;2023-11-21T00:37:17;39.15;;;33.55;;
16039;SDS011;8124;48.634;8.120;2023-11-21T00:42:21;39.90;;;33.75;;
16039;SDS011;8124;48.634;8.120;2023-11-21T00:47:25;39.15;;;33.28;;
16039;SDS011;8124;48.634;8.120;2023-11-21T00:52:29;38.50;;;33.47;;
16039;SDS011;8124;48.634;8.120;2023-11-21T00:57:32;38.13;;;33.42;;
16039;SDS011;8124;48.634;8.120;2023-11-21T01:02:36;38.78;;;33.45;;
16039;SDS011;8124;48.634;8.120;2023-11-21T01:07:40;38.97;;;33.40;;
16039;SDS011;8124;48.634;8.120;2023-11-21T01:12:44;39.88;;;33.67;;
16039;SDS011;8124;48.634;8.120;2023-11-21T01:17:48;37.90;;;33.33;;
16039;SDS011;8124;48.634;8.120;2023-11-21T01:22:53;38.70;;;33.65;;
16039;SDS011;8124;48.634;8.120;2023-11-21T01:27:56;38.08;;;33.15;;
16039;SDS011;8124;48.634;8.120;2023-11-21T01:32:59;38.17;;;32.92;;
16039;SDS011;8124;48.634;8.120;2023-11-21T01:38:05;39.25;;;33.55;;
16039;SDS011;8124;48.634;8.120;2023-11-21T01:43:09;39.03;;;33.38;;
16039;SDS011;8124;48.634;8.120;2023-11-21T01:48:13;38.50;;;33.50;;
16039;SDS011;8124;48.634;8.120;2023-11-21T01:53:19;38.78;;;33.42;;
16039;SDS011;8124;48.634;8.120;2023-11-21T01:58:24;37.70;;;33.40;;
16039;SDS011;8124;48.634;8.120;2023-11-21T02:03:27;39.50;;;33.55;;
16039;SDS011;8124;48.634;8.120;2023-11-21T02:08:31;38.60;;;33.55;;
16039;SDS011;8124;48.634;8.120;2023-11-21T02:13:34;41.00;;;33.60;;
16039;SDS011;8124;48.634;8.120;2023-11-21T02:18:38;37.45;;;32.97;;
16039;SDS011;8124;48.634;8.120;2023-11-21T02:23:44;38.92;;;33.55;;
16039;SDS011;8124;48.634;8.120;2023-11-21T02:28:48;38.08;;;33.17;;
16039;SDS011;8124;48.634;8.120;2023-11-21T02:33:51;41.53;;;33.72;;
16039;SDS011;8124;48.634;8.120;2023-11-21T02:38:56;38.85;;;33.05;;
16039;SDS011;8124;48.634;8.120;2023-11-21T02:43:59;38.75;;;33.22;;
16039;SDS011;8124;48.634;8.120;2023-11-21T02:49:02;37.78;;;33.45;;
16039;SDS011;8124;48.634;8.120;2023-11-21T02:54:08;37.80;;;33.22;;
16039;SDS011;8124;48.634;8.120;2023-11-21T02:59:12;39.30;;;33.15;;
16039;SDS011;8124;48.634;8.120;2023-11-21T03:04:15;38.42;;;33.45;;
16039;SDS011;8124;48.634;8.120;2023-11-21T03:09:20;38.85;;;33.30;;
16039;SDS011;8124;48.634;8.120;2023-11-21T03:14:23;39.17;;;33.67;;
16039;SDS011;8124;48.634;8.120;2023-11-21T03:19:27;38.65;;;33.47;;
16039;SDS011;8124;48.634;8.120;2023-11-21T03:24:33;40.95;;;33.97;;
16039;SDS011;8124;48.634;8.120;2023-11-21T03:29:36;38.95;;;33.42;;
16039;SDS011;8124;48.634;8.120;2023-11-21T03:34:52;38.33;;;33.25;;
16039;SDS011;8124;48.634;8.120;2023-11-21T03:39:58;40.17;;;33.78;;
16039;SDS011;8124;48.634;8.120;2023-11-21T03:45:01;37.58;;;33.22;;
16039;SDS011;8124;48.634;8.120;2023-11-21T03:50:05;37.35;;;33.08;;
16039;SDS011;8124;48.634;8.120;2023-11-21T03:55:11;38.30;;;33.28;;
16039;SDS011;8124;48.634;8.120;2023-11-21T04:00:17;38.15;;;33.70;;
16039;SDS011;8124;48.634;8.120;2023-11-21T04:05:21;38.05;;;33.33;;
16039;SDS011;8124;48.634;8.120;2023-11-21T04:10:26;39.58;;;33.97;;
16039;SDS011;8124;48.634;8.120;2023-11-21T04:15:29;38.05;;;33.25;;
16039;SDS011;8124;48.634;8.120;2023-11-21T04:20:32;38.83;;;33.92;;
16039;SDS011;8124;48.634;8.120;2023-11-21T04:25:36;38.42;;;33.55;;
16039;SDS011;8124;48.634;8.120;2023-11-21T04:30:39;39.25;;;34.00;;
16039;SDS011;8124;48.634;8.120;2023-11-21T04:35:43;38.58;;;33.92;;
16039;SDS011;8124;48.634;8.120;2023-11-21T04:40:47;39.72;;;33.65;;
16039;SDS011;8124;48.634;8.120;2023-11-21T04:45:50;42.50;;;37.30;;
16039;SDS011;8124;48.634;8.120;2023-11-21T04:50:53;39.08;;;33.85;;
16039;SDS011;8124;48.634;8.120;2023-11-21T04:55:57;38.22;;;33.47;;
16039;SDS011;8124;48.634;8.120;2023-11-21T05:01:01;39.10;;;33.47;;
16039;SDS011;8124;48.634;8.120;2023-11-21T05:06:09;38.78;;;32.92;;
16039;SDS011;8124;48.634;8.120;2023-11-21T05:11:13;37.90;;;33.33;;
16039;SDS011;8124;48.634;8.120;2023-11-21T05:16:26;37.63;;;33.35;;
16039;SDS011;8124;48.634;8.120;2023-11-21T05:21:30;40.72;;;33.95;;
16039;SDS011;8124;48.634;8.120;2023-11-21T05:26:34;37.63;;;33.47;;
16039;SDS011;8124;48.634;8.120;2023-11-21T05:31:38;40.47;;;33.50;;
16039;SDS011;8124;48.634;8.120;2023-11-21T05:36:42;37.45;;;33.25;;
16039;SDS011;8124;48.634;8.120;2023-11-21T05:41:47;37.97;;;33.55;;
16039;SDS011;8124;48.634;8.120;2023-11-21T05:46:51;39.50;;;33.83;;
16039;SDS011;8124;48.634;8.120;2023-11-21T05:51:54;38.22;;;33.28;;
16039;SDS011;8124;48.634;8.120;2023-11-21T05:57:01;38.72;;;33.80;;
16039;SDS011;8124;48.634;8.120;2023-11-21T06:02:05;39.00;;;34.20;;
16039;SDS011;8124;48.634;8.120;2023-11-21T06:07:09;37.67;;;33.55;;
16039;SDS011;8124;48.634;8.120;2023-11-21T06:12:13;39.03;;;33.63;;
16039;SDS011;8124;48.634;8.120;2023-11-21T06:17:17;40.75;;;34.15;;
16039;SDS011;8124;48.634;8.120;2023-11-21T06:22:20;40.40;;;34.25;;
16039;SDS011;8124;48.634;8.120;2023-11-21T06:27:25;42.92;;;34.15;;
16039;SDS011;8124;48.634;8.120;2023-11-21T06:32:29;38.83;;;34.03;;
16039;SDS011;8124;48.634;8.120;2023-11-21T06:37:32;40.85;;;33.97;;
16039;SDS011;8124;48.634;8.120;2023-11-21T06:42:37;39.47;;;34.22;;
16039;SDS011;8124;48.634;8.120;2023-11-21T06:47:40;38.50;;;34.28;;
16039;SDS011;8124;48.634;8.120;2023-11-21T06:52:44;39.42;;;33.72;;
16039;SDS011;8124;48.634;8.120;2023-11-21T06:57:48;37.60;;;33.50;;
16039;SDS011;8124;48.634;8.120;2023-11-21T07:02:53;40.20;;;34.33;;
16039;SDS011;8124;48.634;8.120;2023-11-21T07:07:56;41.85;;;34.85;;
16039;SDS011;8124;48.634;8.120;2023-11-21T07:13:07;41.67;;;35.55;;
16039;SDS011;8124;48.634;8.120;2023-11-21T07:18:13;39.97;;;35.35;;
16039;SDS011;8124;48.634;8.120;2023-11-21T07:23:16;41.03;;;36.10;;
16039;SDS011;8124;48.634;8.120;2023-11-21T07:28:21;39.53;;;34.88;;
16039;SDS011;8124;48.634;8.120;2023-11-21T07:33:24;39.30;;;34.00;;
16039;SDS011;8124;48.634;8.120;2023-11-21T07:38:27;38.60;;;34.20;;
16039;SDS011;8124;48.634;8.120;2023-11-21T07:43:31;38.83;;;34.05;;
16039;SDS011;8124;48.634;8.120;2023-11-21T07:48:36;40.72;;;34.72;;
16039;SDS011;8124;48.634;8.120;2023-11-21T07:53:39;39.25;;;34.28;;
16039;SDS011;8124;48.634;8.120;2023-11-21T07:58:44;38.28;;;33.63;;
16039;SDS011;8124;48.634;8.120;2023-11-21T08:03:47;40.38;;;35.97;;
16039;SDS011;8124;48.634;8.120;2023-11-21T08:08:53;39.90;;;34.38;;
16039;SDS011;8124;48.634;8.120;2023-11-21T08:13:58;39.17;;;33.80;;
16039;SDS011;8124;48.634;8.120;2023-11-21T08:19:01;38.25;;;33.95;;
16039;SDS011;8124;48.634;8.120;2023-11-21T08:24:05;38.53;;;33.45;;
16039;SDS011;8124;48.634;8.120;2023-11-21T08:29:13;38.20;;;33.80;;
16039;SDS011;8124;48.634;8.120;2023-11-21T08:34:18;37.70;;;33.25;;
16039;SDS011;8124;48.634;8.120;2023-11-21T08:39:21;37.97;;;33.53;;
16039;SDS011;8124;48.634;8.120;2023-11-21T08:44:26;38.00;;;33.53;;
16039;SDS011;8124;48.634;8.120;2023-11-21T08:49:30;38.03;;;33.78;;
16039;SDS011;8124;48.634;8.120;2023-11-21T08:54:33;38.45;;;32.95;;
16039;SDS011;8124;48.634;8.120;2023-11-21T08:59:39;38.90;;;33.53;;
16039;SDS011;8124;48.634;8.120;2023-11-21T09:04:42;37.83;;;33.17;;
16039;SDS011;8124;48.634;8.120;2023-11-21T09:09:48;37.85;;;33.38;;
16039;SDS011;8124;48.634;8.120;2023-11-21T09:14:53;37.90;;;33.55;;
16039;SDS011;8124;48.634;8.120;2023-11-21T09:19:56;38.35;;;33.33;;
16039;SDS011;8124;48.634;8.120;2023-11-21T09:24:59;37.97;;;33.53;;
16039;SDS011;8124;48.634;8.120;2023-11-21T09:30:04;37.40;;;33.17;;
16039;SDS011;8124;48.634;8.120;2023-11-21T09:35:10;38.90;;;33.67;;
16039;SDS011;8124;48.634;8.120;2023-11-21T09:40:15;38.20;;;34.00;;
16039;SDS011;8124;48.634;8.120;2023-11-21T09:45:26;38.25;;;34.05;;
16039;SDS011;8124;48.634;8.120;2023-11-21T09:50:33;38.58;;;34.20;;
16039;SDS011;8124;48.634;8.120;2023-11-21T09:55:38;38.15;;;33.83;;
16039;SDS011;8124;48.634;8.120;2023-11-21T10:00:45;38.22;;;33.70;;
16039;SDS011;8124;48.634;8.120;2023-11-21T10:05:50;38.80;;;34.47;;
16039;SDS011;8124;48.634;8.120;2023-11-21T10:10:54;38.53;;;34.00;;
16039;SDS011;8124;48.634;8.120;2023-11-21T10:15:59;38.17;;;33.97;;
16039;SDS011;8124;48.634;8.120;2023-11-21T10:21:06;39.47;;;34.22;;
16039;SDS011;8124;48.634;8.120;2023-11-21T10:26:11;40.83;;;34.60;;
16039;SDS011;8124;48.634;8.120;2023-11-21T10:31:33;38.10;;;33.78;;
16039;SDS011;8124;48.634;8.120;2023-11-21T10:36:37;39.05;;;33.85;;
16039;SDS011;8124;48.634;8.120;2023-11-21T10:41:40;39.13;;;34.83;;
16039;SDS011;8124;48.634;8.120;2023-11-21T10:46:44;38.60;;;34.33;;
16039;SDS011;8124;48.634;8.120;2023-11-21T10:51:52;43.22;;;36.97;;
16039;SDS011;8124;48.634;8.120;2023-11-21T10:56:57;39.28;;;34.42;;
16039;SDS011;8124;48.634;8.120;2023-11-21T11:02:05;40.60;;;34.55;;
16039;SDS011;8124;48.634;8.120;2023-11-21T11:07:17;38.95;;;34.63;;
16039;SDS011;8124;48.634;8.120;2023-11-21T11:12:22;38.50;;;34.30;;
16039;SDS011;8124;48.634;8.120;2023-11-21T11:17:29;39.30;;;35.00;;
16039;SDS011;8124;48.634;8.120;2023-11-21T11:22:36;41.13;;;33.80;;
16039;SDS011;8124;48.634;8.120;2023-11-21T11:27:47;38.67;;;34.22;;
16039;SDS011;8124;48.634;8.120;2023-11-21T11:32:58;39.00;;;34.40;;
16039;SDS011;8124;48.634;8.120;2023-11-21T11:38:11;38.92;;;34.50;;
16039;SDS011;8124;48.634;8.120;2023-11-21T11:43:21;40.33;;;34.33;;
16039;SDS011;8124;48.634;8.120;2023-11-21T11:48:29;41.60;;;35.42;;
16039;SDS011;8124;48.634;8.120;2023-11-21T11:53:33;40.92;;;35.60;;
16039;SDS011;8124;48.634;8.120;2023-11-21T11:58:38;39.45;;;34.92;;
16039;SDS011;8124;48.634;8.120;2023-11-21T12:03:44;40.65;;;36.13;;
16039;SDS011;8124;48.634;8.120;2023-11-21T12:09:11;40.38;;;35.13;;
16039;SDS011;8124;48.634;8.120;2023-11-21T12:14:19;39.88;;;34.80;;
16039;SDS011;8124;48.634;8.120;2023-11-21T12:19:24;38.63;;;34.15;;
16039;SDS011;8124;48.634;8.120;2023-11-21T12:24:27;39.97;;;34.75;;
16039;SDS011;8124;48.634;8.120;2023-11-21T12:29:30;41.28;;;35.38;;
16039;SDS011;8124;48.634;8.120;2023-11-21T12:34:35;40.15;;;35.55;;
16039;SDS011;8124;48.634;8.120;2023-11-21T12:39:40;41.28;;;35.63;;
16039;SDS011;8124;48.634;8.120;2023-11-21T12:44:45;40.85;;;34.80;;
16039;SDS011;8124;48.634;8.120;2023-11-21T12:49:50;42.72;;;35.47;;
16039;SDS011;8124;48.634;8.120;2023-11-21T12:54:53;40.42;;;35.00;;
16039;SDS011;8124;48.634;8.120;2023-11-21T12:59:57;38.22;;;34.03;;
16039;SDS011;8124;48.634;8.120;2023-11-21T13:05:03;38.45;;;34.25;;
16039;SDS011;8124;48.634;8.120;2023-11-21T13:10:14;39.30;;;34.78;;
16039;SDS011;8124;48.634;8.120;2023-11-21T13:15:18;39.72;;;34.03;;
16039;SDS011;8124;48.634;8.120;2023-11-21T13:20:22;38.45;;;34.15;;
16039;SDS011;8124;48.634;8.120;2023-11-21T13:25:26;40.50;;;34.65;;
16039;SDS011;8124;48.634;8.120;2023-11-21T13:30:30;40.13;;;35.47;;
16039;SDS011;8124;48.634;8.120;2023-11-21T13:35:38;38.65;;;33.95;;
16039;SDS011;8124;48.634;8.120;2023-11-21T13:40:46;40.28;;;35.35;;
16039;SDS011;8124;48.634;8.120;2023-11-21T13:45:51;39.88;;;35.47;;
16039;SDS011;8124;48.634;8.120;2023-11-21T13:51:02;40.00;;;34.95;;
16039;SDS011;8124;48.634;8.120;2023-11-21T13:56:14;40.20;;;35.80;;
16039;SDS011;8124;48.634;8.120;2023-11-21T14:01:21;40.83;;;35.22;;
16039;SDS011;8124;48.634;8.120;2023-11-21T14:06:45;41.10;;;36.00;;
16039;SDS011;8124;48.634;8.120;2023-11-21T14:11:51;40.00;;;35.30;;
16039;SDS011;8124;48.634;8.120;2023-11-21T14:16:55;40.95;;;35.47;;
16039;SDS011;8124;48.634;8.120;2023-11-21T14:22:00;40.15;;;35.42;;
16039;SDS011;8124;48.634;8.120;2023-11-21T14:27:03;41.70;;;35.88;;
16039;SDS011;8124;48.634;8.120;2023-11-21T14:32:07;41.05;;;34.90;;
16039;SDS011;8124;48.634;8.120;2023-11-21T14:37:11;40.60;;;36.10;;
16039;SDS011;8124;48.634;8.120;2023-11-21T14:42:15;41.42;;;36.80;;
16039;SDS011;8124;48.634;8.120;2023-11-21T14:47:25;39.28;;;34.90;;
16039;SDS011;8124;48.634;8.120;2023-11-21T14:52:30;39.97;;;35.38;;
16039;SDS011;8124;48.634;8.120;2023-11-21T14:57:36;44.35;;;39.17;;
16039;SDS011;8124;48.634;8.120;2023-11-21T15:02:40;43.60;;;35.97;;
16039;SDS011;8124;48.634;8.120;2023-11-21T15:07:53;41.53;;;36.25;;
16039;SDS011;8124;48.634;8.120;2023-11-21T15:12:58;41.05;;;36.00;;
16039;SDS011;8124;48.634;8.120;2023-11-21T15:18:04;41.03;;;36.08;;
16039;SDS011;8124;48.634;8.120;2023-11-21T15:30:02;42.97;;;36.20;;
16039;SDS011;8124;48.634;8.120;2023-11-21T15:35:07;40.72;;;36.25;;
16039;SDS011;8124;48.634;8.120;2023-11-21T15:40:15;43.63;;;37.13;;
16039;SDS011;8124;48.634;8.120;2023-11-21T15:45:31;45.05;;;37.53;;
16039;SDS011;8124;48.634;8.120;2023-11-21T15:50:34;42.15;;;37.55;;
16039;SDS011;8124;48.634;8.120;2023-11-21T15:55:38;41.53;;;36.33;;
16039;SDS011;8124;48.634;8.120;2023-11-21T16:00:49;42.22;;;36.38;;
16039;SDS011;8124;48.634;8.120;2023-11-21T16:05:54;41.30;;;36.80;;
16039;SDS011;8124;48.634;8.120;2023-11-21T16:10:57;41.03;;;36.53;;
16039;SDS011;8124;48.634;8.120;2023-11-21T16:16:02;42.17;;;36.50;;
16039;SDS011;8124;48.634;8.120;2023-11-21T16:21:06;41.78;;;37.22;;
16039;SDS011;8124;48.634;8.120;2023-11-21T16:26:12;43.35;;;36.88;;
16039;SDS011;8124;48.634;8.120;2023-11-21T16:31:22;42.75;;;36.72;;
16039;SDS011;8124;48.634;8.120;2023-11-21T16:36:25;42.08;;;36.80;;
16039;SDS011;8124;48.634;8.120;2023-11-21T16:41:28;45.90;;;38.40;;
16039;SDS011;8124;48.634;8.120;2023-11-21T16:46:33;50.67;;;37.50;;
16039;SDS011;8124;48.634;8.120;2023-11-21T16:51:36;46.92;;;37.50;;
16039;SDS011;8124;48.634;8.120;2023-11-21T16:56:39;45.55;;;38.08;;
16039;SDS011;8124;48.634;8.120;2023-11-21T17:01:43;42.95;;;37.20;;
16039;SDS011;8124;48.634;8.120;2023-11-21T17:06:47;43.00;;;36.97;;
16039;SDS011;8124;48.634;8.120;2023-11-21T17:11:50;44.15;;;37.30;;
16039;SDS011;8124;48.634;8.120;2023-11-21T17:16:56;45.22;;;37.65;;
16039;SDS011;8124;48.634;8.120;2023-11-21T17:22:00;47.50;;;39.30;;
16039;SDS011;8124;48.634;8.120;2023-11-21T17:27:04;42.80;;;36.70;;
16039;SDS011;8124;48.634;8.120;2023-11-21T17:32:09;44.03;;;37.33;;
16039;SDS011;8124;48.634;8.120;2023-11-21T17:37:16;43.78;;;36.90;;
16039;SDS011;8124;48.634;8.120;2023-11-21T17:42:19;42.58;;;37.47;;
16039;SDS011;8124;48.634;8.120;2023-11-21T17:47:24;43.28;;;37.72;;
16039;SDS011;8124;48.634;8.120;2023-11-21T17:52:28;45.20;;;38.70;;
16039;SDS011;8124;48.634;8.120;2023-11-21T17:57:31;47.67;;;37.83;;
16039;SDS011;8124;48.634;8.120;2023-11-21T18:02:35;45.58;;;37.28;;
16039;SDS011;8124;48.634;8.120;2023-11-21T18:07:39;46.38;;;37.47;;
16039;SDS011;8124;48.634;8.120;2023-11-21T18:12:42;45.60;;;38.47;;
16039;SDS011;8124;48.634;8.120;2023-11-21T18:17:46;45.30;;;39.17;;
16039;SDS011;8124;48.634;8.120;2023-11-21T18:22:49;46.15;;;40.25;;
16039;SDS011;8124;48.634;8.120;2023-11-21T18:27:52;44.78;;;39.13;;
16039;SDS011;8124;48.634;8.120;2023-11-21T18:32:57;52.10;;;41.10;;
16039;SDS011;8124;48.634;8.120;2023-11-21T18:38:00;44.30;;;38.60;;
16039;SDS011;8124;48.634;8.120;2023-11-21T18:43:03;45.35;;;39.70;;
16039;SDS011;8124;48.634;8.120;2023-11-21T18:48:08;47.20;;;39.53;;
16039;SDS011;8124;48.634;8.120;2023-11-21T18:53:12;45.55;;;39.50;;
16039;SDS011;8124;48.634;8.120;2023-11-21T18:58:16;47.15;;;40.25;;
16039;SDS011;8124;48.634;8.120;2023-11-21T19:03:22;50.38;;;42.30;;
16039;SDS011;8124;48.634;8.120;2023-11-21T19:08:25;47.75;;;40.13;;
16039;SDS011;8124;48.634;8.120;2023-11-21T19:13:28;45.60;;;39.85;;
16039;SDS011;8124;48.634;8.120;2023-11-21T19:18:32;44.08;;;38.97;;
16039;SDS011;8124;48.634;8.120;2023-11-21T19:23:35;49.78;;;40.88;;
16039;SDS011;8124;48.634;8.120;2023-11-21T19:28:38;47.13;;;40.03;;
16039;SDS011;8124;48.634;8.120;2023-11-21T19:33:43;47.78;;;40.17;;
16039;SDS011;8124;48.634;8.120;2023-11-21T19:38:46;47.80;;;40.10;;
16039;SDS011;8124;48.634;8.120;2023-11-21T19:43:49;46.65;;;39.42;;
16039;SDS011;8124;48.634;8.120;2023-11-21T19:48:55;46.00;;;38.65;;
16039;SDS011;8124;48.634;8.120;2023-11-21T19:53:58;47.47;;;39.30;;
16039;SDS011;8124;48.634;8.120;2023-11-21T19:59:01;51.50;;;44.22;;
16039;SDS011;8124;48.634;8.120;2023-11-21T20:04:06;48.70;;;40.58;;
16039;SDS011;8124;48.634;8.120;2023-11-21T20:09:10;50.72;;;39.95;;
16039;SDS011;8124;48.634;8.120;2023-11-21T20:14:13;50.13;;;40.60;;
16039;SDS011;8124;48.634;8.120;2023-11-21T20:19:18;51.15;;;40.83;;
16039;SDS011;8124;48.634;8.120;2023-11-21T20:24:21;48.90;;;39.83;;
16039;SDS011;8124;48.634;8.120;2023-11-21T20:29:24;48.92;;;39.63;;
16039;SDS011;8124;48.634;8.120;2023-11-21T20:34:29;46.67;;;39.30;;
16039;SDS011;8124;48.634;8.120;2023-11-21T20:39:32;47.42;;;39.80;;
16039;SDS011;8124;48.634;8.120;2023-11-21T20:44:37;48.55;;;40.53;;
16039;SDS011;8124;48.634;8.120;2023-11-21T20:49:41;49.17;;;40.22;;
16039;SDS011;8124;48.634;8.120;2023-11-21T20:54:49;51.35;;;40.00;;
16039;SDS011;8124;48.634;8.120;2023-11-21T20:59:53;46.85;;;40.47;;
16039;SDS011;8124;48.634;8.120;2023-11-21T21:04:57;47.53;;;38.55;;
16039;SDS011;8124;48.634;8.120;2023-11-21T21:10:00;48.90;;;38.88;;
16039;SDS011;8124;48.634;8.120;2023-11-21T21:15:03;45.25;;;38.17;;
16039;SDS011;8124;48.634;8.120;2023-11-21T21:20:09;42.97;;;36.95;;
16039;SDS011;8124;48.634;8.120;2023-11-21T21:25:12;47.75;;;36.95;;
16039;SDS011;8124;48.634;8.120;2023-11-21T21:30:15;42.92;;;36.78;;
16039;SDS011;8124;48.634;8.120;2023-11-21T21:35:20;47.58;;;37.65;;
16039;SDS011;8124;48.634;8.120;2023-11-21T21:40:23;45.97;;;39.03;;
16039;SDS011;8124;48.634;8.120;2023-11-21T21:45:27;42.95;;;36.85;;
16039;SDS011;8124;48.634;8.120;2023-11-21T21:50:31;43.60;;;37.60;;
16039;SDS011;8124;48.634;8.120;2023-11-21T21:55:35;44.53;;;37.45;;
16039;SDS011;8124;48.634;8.120;2023-11-21T22:00:38;45.95;;;38.53;;
16039;SDS011;8124;48.634;8.120;2023-11-21T22:05:42;41.30;;;36.00;;
16039;SDS011;8124;48.634;8.120;2023-11-21T22:10:45;42.78;;;36.38;;
16039;SDS011;8124;48.634;8.120;2023-11-21T22:15:48;43.78;;;37.45;;
16039;SDS011;8124;48.634;8.120;2023-11-21T22:20:52;43.42;;;37.25;;
16039;SDS011;8124;48.634;8.120;2023-11-21T22:25:55;50.03;;;41.05;;
16039;SDS011;8124;48.634;8.120;2023-11-21T22:30:58;49.63;;;39.65;;
16039;SDS011;8124;48.634;8.120;2023-11-21T22:36:03;44.65;;;37.97;;
16039;SDS011;8124;48.634;8.120;2023-11-21T22:41:07;43.88;;;37.10;;
16039;SDS011;8124;48.634;8.120;2023-11-21T22:46:10;45.78;;;38.85;;
16039;SDS011;8124;48.634;8.120;2023-11-21T22:51:16;44.17;;;37.70;;
16039;SDS011;8124;48.634;8.120;2023-11-21T22:56:21;44.20;;;37.67;;
16039;SDS011;8124;48.634;8.120;2023-11-21T23:01:24;44.75;;;36.97;;
16039;SDS011;8124;48.634;8.120;2023-11-21T23:06:28;43.67;;;37.03;;
16039;SDS011;8124;48.634;8.120;2023-11-21T23:11:31;44.65;;;36.70;;
16039;SDS011;8124;48.634;8.120;2023-11-21T23:16:34;42.03;;;36.38;;
16039;SDS011;8124;48.634;8.120;2023-11-21T23:21:38;45.53;;;36.03;;
16039;SDS011;8124;48.634;8.120;2023-11-21T23:26:41;43.53;;;37.60;;
16039;SDS011;8124;48.634;8.120;2023-11-21T23:31:44;46.85;;;38.25;;
16039;SDS011;8124;48.634;8.120;2023-11-21T23:36:49;46.65;;;38.28;;
16039;SDS011;8124;48.634;8.120;2023-11-21T23:41:52;48.83;;;37.42;;
16039;SDS011;8124;48.634;8.120;2023-11-21T23:46:55;44.63;;;38.03;;
16039;SDS011;8124;48.634;8.120;2023-11-21T23:51:59;44.65;;;37.72;;
16039;SDS011;8124;48.634;8.120;2023-11-21T23:57:02;45.30;;;38.47;;
